sensor_id;sensor_type;location;lat;lon;timestamp;temperature;humidity
530;DHT22;251;48.704;9.210;2022-07-23T00:00:13;24.40;14.80
530;DHT22;251;48.704;9.210;2022-07-23T00:02:40;24.30;14.50
530;DHT22;251;48.704;9.210;2022-07-23T00:05:08;24.30;13.80
530;DHT22;251;48.704;9.210;2022-07-23T00:07:34;24.20;13.70
530;DHT22;251;48.704;9.210;2022-07-23T00:10:03;24.20;13.30
530;DHT22;251;48.704;9.210;2022-07-23T00:12:30;24.20;13.40
530;DHT22;251;48.704;9.210;2022-07-23T00:14:57;24.20;12.60
530;DHT22;251;48.704;9.210;2022-07-23T00:17:24;24.20;12.30
530;DHT22;251;48.704;9.210;2022-07-23T00:19:50;24.20;12.30
530;DHT22;251;48.704;9.210;2022-07-23T00:22:19;24.20;11.60
530;DHT22;251;48.704;9.210;2022-07-23T00:24:46;24.20;12.40
530;DHT22;251;48.704;9.210;2022-07-23T00:27:14;24.20;10.10
530;DHT22;251;48.704;9.210;2022-07-23T00:29:41;24.20;10.40
530;DHT22;251;48.704;9.210;2022-07-23T00:32:08;24.20;11.00
530;DHT22;251;48.704;9.210;2022-07-23T00:34:36;24.20;10.80
530;DHT22;251;48.704;9.210;2022-07-23T00:37:02;24.20;12.30
530;DHT22;251;48.704;9.210;2022-07-23T00:39:29;24.20;12.50
530;DHT22;251;48.704;9.210;2022-07-23T00:41:56;24.20;11.40
530;DHT22;251;48.704;9.210;2022-07-23T00:44:25;24.10;11.00
530;DHT22;251;48.704;9.210;2022-07-23T00:46:54;24.10;11.30
530;DHT22;251;48.704;9.210;2022-07-23T00:49:21;24.10;11.00
530;DHT22;251;48.704;9.210;2022-07-23T00:51:48;24.00;11.40
530;DHT22;251;48.704;9.210;2022-07-23T00:54:16;24.00;11.20
530;DHT22;251;48.704;9.210;2022-07-23T00:56:45;24.00;11.20
530;DHT22;251;48.704;9.210;2022-07-23T00:59:12;24.00;11.80
530;DHT22;251;48.704;9.210;2022-07-23T01:01:41;24.00;10.90
530;DHT22;251;48.704;9.210;2022-07-23T01:04:09;23.90;10.90
530;DHT22;251;48.704;9.210;2022-07-23T01:06:37;23.90;11.20
530;DHT22;251;48.704;9.210;2022-07-23T01:09:06;23.90;11.10
530;DHT22;251;48.704;9.210;2022-07-23T01:11:33;23.90;12.10
530;DHT22;251;48.704;9.210;2022-07-23T01:14:08;23.90;11.70
530;DHT22;251;48.704;9.210;2022-07-23T01:16:35;23.90;11.30
530;DHT22;251;48.704;9.210;2022-07-23T01:19:03;23.90;11.10
530;DHT22;251;48.704;9.210;2022-07-23T01:21:34;23.90;11.70
530;DHT22;251;48.704;9.210;2022-07-23T01:24:03;23.90;11.60
530;DHT22;251;48.704;9.210;2022-07-23T01:26:31;23.80;12.20
530;DHT22;251;48.704;9.210;2022-07-23T01:28:58;23.80;12.00
530;DHT22;251;48.704;9.210;2022-07-23T01:31:25;23.80;11.70
530;DHT22;251;48.704;9.210;2022-07-23T01:33:52;23.80;12.00
530;DHT22;251;48.704;9.210;2022-07-23T01:36:19;23.70;12.40
530;DHT22;251;48.704;9.210;2022-07-23T01:38:47;23.70;12.90
530;DHT22;251;48.704;9.210;2022-07-23T01:41:16;23.70;13.40
530;DHT22;251;48.704;9.210;2022-07-23T01:43:43;23.70;13.20
530;DHT22;251;48.704;9.210;2022-07-23T01:46:10;23.70;13.20
530;DHT22;251;48.704;9.210;2022-07-23T01:48:41;23.70;13.90
530;DHT22;251;48.704;9.210;2022-07-23T01:51:20;23.60;14.20
530;DHT22;251;48.704;9.210;2022-07-23T01:54:03;23.60;13.90
530;DHT22;251;48.704;9.210;2022-07-23T01:56:31;23.50;14.30
530;DHT22;251;48.704;9.210;2022-07-23T01:58:58;23.50;15.10
530;DHT22;251;48.704;9.210;2022-07-23T02:01:25;23.50;16.00
530;DHT22;251;48.704;9.210;2022-07-23T02:03:52;23.50;16.00
530;DHT22;251;48.704;9.210;2022-07-23T02:06:19;23.40;15.60
530;DHT22;251;48.704;9.210;2022-07-23T02:08:46;23.40;16.10
530;DHT22;251;48.704;9.210;2022-07-23T02:11:12;23.40;16.50
530;DHT22;251;48.704;9.210;2022-07-23T02:13:40;23.40;16.10
530;DHT22;251;48.704;9.210;2022-07-23T02:16:07;23.40;16.90
530;DHT22;251;48.704;9.210;2022-07-23T02:18:34;23.40;16.60
530;DHT22;251;48.704;9.210;2022-07-23T02:21:00;23.30;16.80
530;DHT22;251;48.704;9.210;2022-07-23T02:23:27;23.20;16.90
530;DHT22;251;48.704;9.210;2022-07-23T02:25:54;23.20;16.90
530;DHT22;251;48.704;9.210;2022-07-23T02:28:21;23.20;16.90
530;DHT22;251;48.704;9.210;2022-07-23T02:30:49;23.10;17.40
530;DHT22;251;48.704;9.210;2022-07-23T02:33:16;23.10;17.70
530;DHT22;251;48.704;9.210;2022-07-23T02:35:42;23.10;16.80
530;DHT22;251;48.704;9.210;2022-07-23T02:38:10;23.00;17.30
530;DHT22;251;48.704;9.210;2022-07-23T02:40:36;23.00;19.30
530;DHT22;251;48.704;9.210;2022-07-23T02:43:03;23.00;19.10
530;DHT22;251;48.704;9.210;2022-07-23T02:45:30;23.00;18.80
530;DHT22;251;48.704;9.210;2022-07-23T02:47:58;23.00;18.70
530;DHT22;251;48.704;9.210;2022-07-23T02:50:25;23.00;18.40
530;DHT22;251;48.704;9.210;2022-07-23T02:52:55;23.00;19.20
530;DHT22;251;48.704;9.210;2022-07-23T02:55:23;23.00;19.80
530;DHT22;251;48.704;9.210;2022-07-23T02:57:51;23.00;20.00
530;DHT22;251;48.704;9.210;2022-07-23T03:00:18;23.00;18.70
530;DHT22;251;48.704;9.210;2022-07-23T03:02:44;22.90;18.60
530;DHT22;251;48.704;9.210;2022-07-23T03:05:13;22.90;19.00
530;DHT22;251;48.704;9.210;2022-07-23T03:07:46;22.80;19.30
530;DHT22;251;48.704;9.210;2022-07-23T03:10:12;22.80;19.60
530;DHT22;251;48.704;9.210;2022-07-23T03:12:39;22.80;19.90
530;DHT22;251;48.704;9.210;2022-07-23T03:15:07;22.70;20.50
530;DHT22;251;48.704;9.210;2022-07-23T03:17:34;22.60;20.50
530;DHT22;251;48.704;9.210;2022-07-23T03:20:02;22.60;18.20
530;DHT22;251;48.704;9.210;2022-07-23T03:22:31;22.50;21.30
530;DHT22;251;48.704;9.210;2022-07-23T03:24:57;22.30;21.50
530;DHT22;251;48.704;9.210;2022-07-23T03:27:32;22.30;21.80
530;DHT22;251;48.704;9.210;2022-07-23T03:30:00;22.20;21.40
530;DHT22;251;48.704;9.210;2022-07-23T03:32:26;22.20;22.70
530;DHT22;251;48.704;9.210;2022-07-23T03:34:55;22.10;21.80
530;DHT22;251;48.704;9.210;2022-07-23T03:37:21;22.20;22.60
530;DHT22;251;48.704;9.210;2022-07-23T03:39:50;22.20;22.60
530;DHT22;251;48.704;9.210;2022-07-23T03:42:17;22.20;22.30
530;DHT22;251;48.704;9.210;2022-07-23T03:44:45;22.10;23.70
530;DHT22;251;48.704;9.210;2022-07-23T03:47:12;21.90;23.90
530;DHT22;251;48.704;9.210;2022-07-23T03:49:39;21.80;23.10
530;DHT22;251;48.704;9.210;2022-07-23T03:52:06;21.80;24.00
530;DHT22;251;48.704;9.210;2022-07-23T03:54:32;21.70;23.90
530;DHT22;251;48.704;9.210;2022-07-23T03:57:02;21.70;23.90
530;DHT22;251;48.704;9.210;2022-07-23T03:59:29;21.70;24.70
530;DHT22;251;48.704;9.210;2022-07-23T04:01:56;21.60;25.00
530;DHT22;251;48.704;9.210;2022-07-23T04:04:24;21.60;24.80
530;DHT22;251;48.704;9.210;2022-07-23T04:06:51;21.60;25.30
530;DHT22;251;48.704;9.210;2022-07-23T04:09:18;21.50;26.00
530;DHT22;251;48.704;9.210;2022-07-23T04:11:45;21.50;26.40
530;DHT22;251;48.704;9.210;2022-07-23T04:14:13;21.40;25.90
530;DHT22;251;48.704;9.210;2022-07-23T04:16:39;21.30;26.80
530;DHT22;251;48.704;9.210;2022-07-23T04:19:06;21.20;26.50
530;DHT22;251;48.704;9.210;2022-07-23T04:21:44;21.20;26.30
530;DHT22;251;48.704;9.210;2022-07-23T04:24:10;21.20;26.50
530;DHT22;251;48.704;9.210;2022-07-23T04:26:37;21.20;27.00
530;DHT22;251;48.704;9.210;2022-07-23T04:29:04;21.10;27.00
530;DHT22;251;48.704;9.210;2022-07-23T04:31:32;21.10;28.10
530;DHT22;251;48.704;9.210;2022-07-23T04:33:59;21.10;27.50
530;DHT22;251;48.704;9.210;2022-07-23T04:36:26;21.10;27.40
530;DHT22;251;48.704;9.210;2022-07-23T04:38:53;21.10;27.30
530;DHT22;251;48.704;9.210;2022-07-23T04:41:20;21.10;28.20
530;DHT22;251;48.704;9.210;2022-07-23T04:43:47;21.00;28.90
530;DHT22;251;48.704;9.210;2022-07-23T04:46:14;21.00;28.20
530;DHT22;251;48.704;9.210;2022-07-23T04:48:47;21.00;27.90
530;DHT22;251;48.704;9.210;2022-07-23T04:51:14;20.90;28.60
530;DHT22;251;48.704;9.210;2022-07-23T04:53:41;20.90;29.10
530;DHT22;251;48.704;9.210;2022-07-23T04:56:09;20.90;29.30
530;DHT22;251;48.704;9.210;2022-07-23T04:58:36;20.80;30.00
530;DHT22;251;48.704;9.210;2022-07-23T05:01:03;20.80;30.00
530;DHT22;251;48.704;9.210;2022-07-23T05:03:32;20.80;30.30
530;DHT22;251;48.704;9.210;2022-07-23T05:06:00;20.90;30.10
530;DHT22;251;48.704;9.210;2022-07-23T05:08:29;20.90;29.30
530;DHT22;251;48.704;9.210;2022-07-23T05:10:57;21.00;30.50
530;DHT22;251;48.704;9.210;2022-07-23T05:13:24;21.00;29.90
530;DHT22;251;48.704;9.210;2022-07-23T05:15:52;21.00;29.40
530;DHT22;251;48.704;9.210;2022-07-23T05:18:19;21.10;30.30
530;DHT22;251;48.704;9.210;2022-07-23T05:20:46;21.10;32.00
530;DHT22;251;48.704;9.210;2022-07-23T05:23:18;21.20;33.30
530;DHT22;251;48.704;9.210;2022-07-23T05:25:47;21.20;32.90
530;DHT22;251;48.704;9.210;2022-07-23T05:28:13;21.30;32.80
530;DHT22;251;48.704;9.210;2022-07-23T05:30:40;21.40;31.60
530;DHT22;251;48.704;9.210;2022-07-23T05:33:10;21.50;30.80
530;DHT22;251;48.704;9.210;2022-07-23T05:35:38;21.60;30.80
530;DHT22;251;48.704;9.210;2022-07-23T05:38:28;21.70;31.10
530;DHT22;251;48.704;9.210;2022-07-23T05:40:58;21.80;31.80
530;DHT22;251;48.704;9.210;2022-07-23T05:43:26;21.80;30.00
530;DHT22;251;48.704;9.210;2022-07-23T05:45:53;21.90;29.70
530;DHT22;251;48.704;9.210;2022-07-23T05:48:21;21.90;29.30
530;DHT22;251;48.704;9.210;2022-07-23T05:51:19;22.00;29.10
530;DHT22;251;48.704;9.210;2022-07-23T05:53:48;22.10;30.00
530;DHT22;251;48.704;9.210;2022-07-23T05:56:20;22.10;28.90
530;DHT22;251;48.704;9.210;2022-07-23T05:58:47;22.20;29.20
530;DHT22;251;48.704;9.210;2022-07-23T06:01:16;22.20;29.40
530;DHT22;251;48.704;9.210;2022-07-23T06:03:57;22.30;30.50
530;DHT22;251;48.704;9.210;2022-07-23T06:06:31;22.30;30.20
530;DHT22;251;48.704;9.210;2022-07-23T06:08:59;22.40;28.10
530;DHT22;251;48.704;9.210;2022-07-23T06:11:26;22.40;26.80
530;DHT22;251;48.704;9.210;2022-07-23T06:13:53;22.40;27.50
530;DHT22;251;48.704;9.210;2022-07-23T06:16:24;22.40;26.60
530;DHT22;251;48.704;9.210;2022-07-23T06:18:50;22.50;27.60
530;DHT22;251;48.704;9.210;2022-07-23T06:21:18;22.50;26.10
530;DHT22;251;48.704;9.210;2022-07-23T06:23:45;22.50;28.30
530;DHT22;251;48.704;9.210;2022-07-23T06:26:16;22.50;25.10
530;DHT22;251;48.704;9.210;2022-07-23T06:28:43;22.50;26.70
530;DHT22;251;48.704;9.210;2022-07-23T06:31:12;22.50;27.30
530;DHT22;251;48.704;9.210;2022-07-23T06:33:38;22.60;26.10
530;DHT22;251;48.704;9.210;2022-07-23T06:36:06;22.60;24.10
530;DHT22;251;48.704;9.210;2022-07-23T06:38:33;22.70;22.90
530;DHT22;251;48.704;9.210;2022-07-23T06:41:00;22.80;22.40
530;DHT22;251;48.704;9.210;2022-07-23T06:43:30;22.80;22.10
530;DHT22;251;48.704;9.210;2022-07-23T06:45:57;22.90;23.30
530;DHT22;251;48.704;9.210;2022-07-23T06:48:24;22.90;23.80
530;DHT22;251;48.704;9.210;2022-07-23T06:50:51;22.80;23.20
530;DHT22;251;48.704;9.210;2022-07-23T06:53:23;22.90;21.60
530;DHT22;251;48.704;9.210;2022-07-23T06:55:49;22.90;21.70
530;DHT22;251;48.704;9.210;2022-07-23T06:58:16;22.90;20.20
530;DHT22;251;48.704;9.210;2022-07-23T07:00:46;22.90;21.70
530;DHT22;251;48.704;9.210;2022-07-23T07:03:13;23.00;21.10
530;DHT22;251;48.704;9.210;2022-07-23T07:05:40;23.00;19.50
530;DHT22;251;48.704;9.210;2022-07-23T07:08:06;23.00;20.70
530;DHT22;251;48.704;9.210;2022-07-23T07:10:33;23.00;19.50
530;DHT22;251;48.704;9.210;2022-07-23T07:13:00;23.10;19.40
530;DHT22;251;48.704;9.210;2022-07-23T07:15:27;23.10;18.50
530;DHT22;251;48.704;9.210;2022-07-23T07:17:55;23.10;19.20
530;DHT22;251;48.704;9.210;2022-07-23T07:20:21;23.10;20.00
530;DHT22;251;48.704;9.210;2022-07-23T07:22:49;23.10;18.70
530;DHT22;251;48.704;9.210;2022-07-23T07:25:15;23.10;19.20
530;DHT22;251;48.704;9.210;2022-07-23T07:27:42;23.10;18.00
530;DHT22;251;48.704;9.210;2022-07-23T07:30:11;23.10;17.20
530;DHT22;251;48.704;9.210;2022-07-23T07:32:38;23.10;17.90
530;DHT22;251;48.704;9.210;2022-07-23T07:35:07;23.20;17.50
530;DHT22;251;48.704;9.210;2022-07-23T07:37:34;23.30;17.00
530;DHT22;251;48.704;9.210;2022-07-23T07:40:01;23.40;17.50
530;DHT22;251;48.704;9.210;2022-07-23T07:42:28;23.40;16.90
530;DHT22;251;48.704;9.210;2022-07-23T07:44:55;23.50;17.00
530;DHT22;251;48.704;9.210;2022-07-23T07:47:21;23.50;16.70
530;DHT22;251;48.704;9.210;2022-07-23T07:49:48;23.70;16.60
530;DHT22;251;48.704;9.210;2022-07-23T07:52:16;23.70;16.30
530;DHT22;251;48.704;9.210;2022-07-23T07:54:43;23.70;15.70
530;DHT22;251;48.704;9.210;2022-07-23T07:57:10;23.80;15.40
530;DHT22;251;48.704;9.210;2022-07-23T07:59:36;23.80;14.60
530;DHT22;251;48.704;9.210;2022-07-23T08:02:03;23.80;14.80
530;DHT22;251;48.704;9.210;2022-07-23T08:04:30;23.70;15.90
530;DHT22;251;48.704;9.210;2022-07-23T08:06:57;23.70;17.10
530;DHT22;251;48.704;9.210;2022-07-23T08:09:25;23.70;15.80
530;DHT22;251;48.704;9.210;2022-07-23T08:11:51;23.80;15.00
530;DHT22;251;48.704;9.210;2022-07-23T08:14:18;23.80;15.80
530;DHT22;251;48.704;9.210;2022-07-23T08:16:45;23.80;17.00
530;DHT22;251;48.704;9.210;2022-07-23T08:19:12;23.80;17.30
530;DHT22;251;48.704;9.210;2022-07-23T08:21:39;23.80;17.30
530;DHT22;251;48.704;9.210;2022-07-23T08:24:06;23.80;17.20
530;DHT22;251;48.704;9.210;2022-07-23T08:26:34;23.80;18.10
530;DHT22;251;48.704;9.210;2022-07-23T08:29:01;23.90;18.00
530;DHT22;251;48.704;9.210;2022-07-23T08:31:27;23.90;17.40
530;DHT22;251;48.704;9.210;2022-07-23T08:33:54;23.90;17.20
530;DHT22;251;48.704;9.210;2022-07-23T08:36:22;24.00;17.00
530;DHT22;251;48.704;9.210;2022-07-23T08:38:48;24.00;16.20
530;DHT22;251;48.704;9.210;2022-07-23T08:41:16;23.90;15.90
530;DHT22;251;48.704;9.210;2022-07-23T08:43:44;23.90;15.80
530;DHT22;251;48.704;9.210;2022-07-23T08:46:12;23.90;15.40
530;DHT22;251;48.704;9.210;2022-07-23T08:48:39;24.00;15.60
530;DHT22;251;48.704;9.210;2022-07-23T08:51:07;24.00;15.60
530;DHT22;251;48.704;9.210;2022-07-23T08:53:35;24.00;15.70
530;DHT22;251;48.704;9.210;2022-07-23T08:56:05;24.10;15.50
530;DHT22;251;48.704;9.210;2022-07-23T08:58:32;24.10;14.10
530;DHT22;251;48.704;9.210;2022-07-23T09:01:00;24.10;14.40
530;DHT22;251;48.704;9.210;2022-07-23T09:03:29;24.10;14.60
530;DHT22;251;48.704;9.210;2022-07-23T09:05:57;24.20;15.60
530;DHT22;251;48.704;9.210;2022-07-23T09:08:25;24.20;16.00
530;DHT22;251;48.704;9.210;2022-07-23T09:10:55;24.30;14.30
530;DHT22;251;48.704;9.210;2022-07-23T09:13:25;24.40;14.80
530;DHT22;251;48.704;9.210;2022-07-23T09:15:53;24.50;14.10
530;DHT22;251;48.704;9.210;2022-07-23T09:18:28;24.60;13.80
530;DHT22;251;48.704;9.210;2022-07-23T09:21:06;24.70;14.50
530;DHT22;251;48.704;9.210;2022-07-23T09:23:37;24.80;13.90
530;DHT22;251;48.704;9.210;2022-07-23T09:26:18;24.80;12.50
530;DHT22;251;48.704;9.210;2022-07-23T09:28:53;24.80;13.30
530;DHT22;251;48.704;9.210;2022-07-23T09:31:21;24.90;14.30
530;DHT22;251;48.704;9.210;2022-07-23T09:33:50;24.90;13.50
530;DHT22;251;48.704;9.210;2022-07-23T09:36:27;25.10;13.50
530;DHT22;251;48.704;9.210;2022-07-23T09:38:55;25.20;13.80
530;DHT22;251;48.704;9.210;2022-07-23T09:41:21;25.30;14.10
530;DHT22;251;48.704;9.210;2022-07-23T09:43:55;25.40;14.10
530;DHT22;251;48.704;9.210;2022-07-23T09:46:23;25.60;12.80
530;DHT22;251;48.704;9.210;2022-07-23T09:48:52;25.60;10.80
530;DHT22;251;48.704;9.210;2022-07-23T09:51:19;25.60;12.00
530;DHT22;251;48.704;9.210;2022-07-23T09:53:51;25.60;11.50
530;DHT22;251;48.704;9.210;2022-07-23T09:56:20;25.70;10.40
530;DHT22;251;48.704;9.210;2022-07-23T09:58:50;25.60;10.70
530;DHT22;251;48.704;9.210;2022-07-23T10:01:17;25.60;11.90
530;DHT22;251;48.704;9.210;2022-07-23T10:03:46;25.60;11.90
530;DHT22;251;48.704;9.210;2022-07-23T10:06:32;25.70;12.40
530;DHT22;251;48.704;9.210;2022-07-23T10:09:26;25.90;12.10
530;DHT22;251;48.704;9.210;2022-07-23T10:12:22;26.10;10.30
530;DHT22;251;48.704;9.210;2022-07-23T10:15:13;26.00;9.10
530;DHT22;251;48.704;9.210;2022-07-23T10:17:40;25.90;9.80
530;DHT22;251;48.704;9.210;2022-07-23T10:20:06;25.90;11.20
530;DHT22;251;48.704;9.210;2022-07-23T10:22:37;26.00;10.70
530;DHT22;251;48.704;9.210;2022-07-23T10:25:10;25.90;9.60
530;DHT22;251;48.704;9.210;2022-07-23T10:27:54;25.90;9.60
530;DHT22;251;48.704;9.210;2022-07-23T10:30:30;26.00;11.20
530;DHT22;251;48.704;9.210;2022-07-23T10:33:09;26.00;11.50
530;DHT22;251;48.704;9.210;2022-07-23T10:35:44;26.10;10.90
530;DHT22;251;48.704;9.210;2022-07-23T10:38:20;26.20;10.40
530;DHT22;251;48.704;9.210;2022-07-23T10:40:56;26.20;10.70
530;DHT22;251;48.704;9.210;2022-07-23T10:43:24;26.30;9.70
530;DHT22;251;48.704;9.210;2022-07-23T10:45:52;26.20;8.70
530;DHT22;251;48.704;9.210;2022-07-23T10:48:20;26.20;8.40
530;DHT22;251;48.704;9.210;2022-07-23T10:51:09;26.20;8.90
530;DHT22;251;48.704;9.210;2022-07-23T10:53:57;26.20;8.10
530;DHT22;251;48.704;9.210;2022-07-23T10:56:50;26.20;9.50
530;DHT22;251;48.704;9.210;2022-07-23T10:59:17;26.10;8.40
530;DHT22;251;48.704;9.210;2022-07-23T11:01:43;26.10;7.90
530;DHT22;251;48.704;9.210;2022-07-23T11:04:10;26.20;9.70
530;DHT22;251;48.704;9.210;2022-07-23T11:07:06;26.30;10.50
530;DHT22;251;48.704;9.210;2022-07-23T11:09:41;26.40;8.80
530;DHT22;251;48.704;9.210;2022-07-23T11:12:31;26.40;9.30
530;DHT22;251;48.704;9.210;2022-07-23T11:14:58;26.50;8.30
530;DHT22;251;48.704;9.210;2022-07-23T11:17:26;26.50;10.40
530;DHT22;251;48.704;9.210;2022-07-23T11:20:13;26.60;8.70
530;DHT22;251;48.704;9.210;2022-07-23T11:22:47;26.70;8.40
530;DHT22;251;48.704;9.210;2022-07-23T11:25:32;26.80;6.90
530;DHT22;251;48.704;9.210;2022-07-23T11:28:11;26.90;7.80
530;DHT22;251;48.704;9.210;2022-07-23T11:30:40;27.00;7.30
530;DHT22;251;48.704;9.210;2022-07-23T11:33:17;27.00;8.40
530;DHT22;251;48.704;9.210;2022-07-23T11:35:46;27.00;6.80
530;DHT22;251;48.704;9.210;2022-07-23T11:38:15;27.00;6.40
530;DHT22;251;48.704;9.210;2022-07-23T11:40:44;26.90;6.10
530;DHT22;251;48.704;9.210;2022-07-23T11:43:11;26.90;4.30
530;DHT22;251;48.704;9.210;2022-07-23T11:45:41;26.90;5.00
530;DHT22;251;48.704;9.210;2022-07-23T11:48:09;26.90;6.40
530;DHT22;251;48.704;9.210;2022-07-23T11:50:36;26.90;6.40
530;DHT22;251;48.704;9.210;2022-07-23T11:53:03;27.10;8.70
530;DHT22;251;48.704;9.210;2022-07-23T11:55:30;27.20;8.10
530;DHT22;251;48.704;9.210;2022-07-23T11:57:58;27.40;7.70
530;DHT22;251;48.704;9.210;2022-07-23T12:00:28;27.50;7.20
530;DHT22;251;48.704;9.210;2022-07-23T12:02:58;27.60;5.90
530;DHT22;251;48.704;9.210;2022-07-23T12:05:28;27.70;5.90
530;DHT22;251;48.704;9.210;2022-07-23T12:07:55;27.70;5.40
530;DHT22;251;48.704;9.210;2022-07-23T12:10:24;27.70;5.00
530;DHT22;251;48.704;9.210;2022-07-23T12:12:53;27.70;7.40
530;DHT22;251;48.704;9.210;2022-07-23T12:15:23;27.70;6.10
530;DHT22;251;48.704;9.210;2022-07-23T12:17:51;27.70;5.50
530;DHT22;251;48.704;9.210;2022-07-23T12:20:21;27.80;6.60
530;DHT22;251;48.704;9.210;2022-07-23T12:22:50;27.80;4.70
530;DHT22;251;48.704;9.210;2022-07-23T12:25:19;27.90;5.40
530;DHT22;251;48.704;9.210;2022-07-23T12:27:57;27.90;5.80
530;DHT22;251;48.704;9.210;2022-07-23T12:30:28;27.90;4.40
530;DHT22;251;48.704;9.210;2022-07-23T12:32:57;27.90;4.60
530;DHT22;251;48.704;9.210;2022-07-23T12:35:32;28.00;5.90
530;DHT22;251;48.704;9.210;2022-07-23T12:38:01;28.00;4.60
530;DHT22;251;48.704;9.210;2022-07-23T12:40:29;28.10;5.70
530;DHT22;251;48.704;9.210;2022-07-23T12:42:58;28.10;6.20
530;DHT22;251;48.704;9.210;2022-07-23T12:45:28;28.20;5.20
530;DHT22;251;48.704;9.210;2022-07-23T12:48:01;28.20;6.30
530;DHT22;251;48.704;9.210;2022-07-23T12:50:42;28.20;3.80
530;DHT22;251;48.704;9.210;2022-07-23T12:53:12;28.30;5.10
530;DHT22;251;48.704;9.210;2022-07-23T12:55:39;28.30;3.80
530;DHT22;251;48.704;9.210;2022-07-23T12:58:09;28.20;4.20
530;DHT22;251;48.704;9.210;2022-07-23T13:00:59;28.20;4.80
530;DHT22;251;48.704;9.210;2022-07-23T13:03:35;28.30;3.90
530;DHT22;251;48.704;9.210;2022-07-23T13:06:04;28.30;4.00
530;DHT22;251;48.704;9.210;2022-07-23T13:08:32;28.30;4.20
530;DHT22;251;48.704;9.210;2022-07-23T13:11:00;28.30;3.40
530;DHT22;251;48.704;9.210;2022-07-23T13:13:29;28.30;4.60
530;DHT22;251;48.704;9.210;2022-07-23T13:15:58;28.20;3.50
530;DHT22;251;48.704;9.210;2022-07-23T13:18:25;28.20;5.40
530;DHT22;251;48.704;9.210;2022-07-23T13:20:53;28.10;4.00
530;DHT22;251;48.704;9.210;2022-07-23T13:23:20;28.20;3.80
530;DHT22;251;48.704;9.210;2022-07-23T13:25:48;28.30;3.40
530;DHT22;251;48.704;9.210;2022-07-23T13:28:16;28.40;5.00
530;DHT22;251;48.704;9.210;2022-07-23T13:30:44;28.40;2.50
530;DHT22;251;48.704;9.210;2022-07-23T13:33:13;28.40;5.40
530;DHT22;251;48.704;9.210;2022-07-23T13:35:39;28.40;5.70
530;DHT22;251;48.704;9.210;2022-07-23T13:38:06;28.50;5.10
530;DHT22;251;48.704;9.210;2022-07-23T13:40:35;28.50;4.90
530;DHT22;251;48.704;9.210;2022-07-23T13:43:04;28.50;4.50
530;DHT22;251;48.704;9.210;2022-07-23T13:45:31;28.60;4.80
530;DHT22;251;48.704;9.210;2022-07-23T13:47:58;28.80;4.90
530;DHT22;251;48.704;9.210;2022-07-23T13:50:26;28.80;2.90
530;DHT22;251;48.704;9.210;2022-07-23T13:52:52;28.80;3.50
530;DHT22;251;48.704;9.210;2022-07-23T13:55:19;28.60;3.70
530;DHT22;251;48.704;9.210;2022-07-23T13:57:46;28.60;2.60
530;DHT22;251;48.704;9.210;2022-07-23T14:00:13;28.60;2.90
530;DHT22;251;48.704;9.210;2022-07-23T14:02:40;28.60;2.90
530;DHT22;251;48.704;9.210;2022-07-23T14:05:09;28.60;3.10
530;DHT22;251;48.704;9.210;2022-07-23T14:07:38;28.40;2.80
530;DHT22;251;48.704;9.210;2022-07-23T14:10:06;28.30;3.30
530;DHT22;251;48.704;9.210;2022-07-23T14:12:33;28.10;3.00
530;DHT22;251;48.704;9.210;2022-07-23T14:15:00;28.00;3.30
530;DHT22;251;48.704;9.210;2022-07-23T14:17:27;28.00;4.90
530;DHT22;251;48.704;9.210;2022-07-23T14:19:54;27.90;3.10
530;DHT22;251;48.704;9.210;2022-07-23T14:22:20;27.90;3.20
530;DHT22;251;48.704;9.210;2022-07-23T14:24:49;27.90;3.40
530;DHT22;251;48.704;9.210;2022-07-23T14:27:15;27.80;4.10
530;DHT22;251;48.704;9.210;2022-07-23T14:29:42;27.80;4.30
530;DHT22;251;48.704;9.210;2022-07-23T14:32:09;27.80;4.90
530;DHT22;251;48.704;9.210;2022-07-23T14:34:36;27.80;4.50
530;DHT22;251;48.704;9.210;2022-07-23T14:37:02;27.80;5.30
530;DHT22;251;48.704;9.210;2022-07-23T14:39:29;27.80;5.00
530;DHT22;251;48.704;9.210;2022-07-23T14:41:57;27.80;3.50
530;DHT22;251;48.704;9.210;2022-07-23T14:44:24;27.90;3.80
530;DHT22;251;48.704;9.210;2022-07-23T14:46:51;27.90;5.50
530;DHT22;251;48.704;9.210;2022-07-23T14:49:19;28.00;3.50
530;DHT22;251;48.704;9.210;2022-07-23T14:51:45;28.20;3.00
530;DHT22;251;48.704;9.210;2022-07-23T14:54:12;28.30;3.20
530;DHT22;251;48.704;9.210;2022-07-23T14:56:40;28.30;3.80
530;DHT22;251;48.704;9.210;2022-07-23T14:59:08;28.40;2.50
530;DHT22;251;48.704;9.210;2022-07-23T15:01:35;28.50;2.30
530;DHT22;251;48.704;9.210;2022-07-23T15:04:03;28.50;3.80
530;DHT22;251;48.704;9.210;2022-07-23T15:06:30;28.50;2.60
530;DHT22;251;48.704;9.210;2022-07-23T15:08:56;28.50;1.20
530;DHT22;251;48.704;9.210;2022-07-23T15:11:23;28.50;1.00
530;DHT22;251;48.704;9.210;2022-07-23T15:13:50;28.50;1.30
530;DHT22;251;48.704;9.210;2022-07-23T15:16:18;28.40;1.40
530;DHT22;251;48.704;9.210;2022-07-23T15:18:45;28.40;3.80
530;DHT22;251;48.704;9.210;2022-07-23T15:21:12;28.30;4.80
530;DHT22;251;48.704;9.210;2022-07-23T15:23:39;28.20;2.90
530;DHT22;251;48.704;9.210;2022-07-23T15:26:06;28.20;1.00
530;DHT22;251;48.704;9.210;2022-07-23T15:28:34;28.20;6.60
530;DHT22;251;48.704;9.210;2022-07-23T15:31:02;28.10;2.90
530;DHT22;251;48.704;9.210;2022-07-23T15:33:30;28.10;3.50
530;DHT22;251;48.704;9.210;2022-07-23T15:35:57;28.20;2.30
530;DHT22;251;48.704;9.210;2022-07-23T15:38:25;28.20;1.70
530;DHT22;251;48.704;9.210;2022-07-23T15:40:53;28.30;2.80
530;DHT22;251;48.704;9.210;2022-07-23T15:43:21;28.30;2.30
530;DHT22;251;48.704;9.210;2022-07-23T15:45:48;28.30;4.00
530;DHT22;251;48.704;9.210;2022-07-23T15:48:15;28.30;2.60
530;DHT22;251;48.704;9.210;2022-07-23T15:50:43;28.30;1.80
530;DHT22;251;48.704;9.210;2022-07-23T15:53:10;28.30;1.10
530;DHT22;251;48.704;9.210;2022-07-23T15:55:37;28.30;2.30
530;DHT22;251;48.704;9.210;2022-07-23T15:58:04;28.30;3.60
530;DHT22;251;48.704;9.210;2022-07-23T16:00:31;28.30;3.60
530;DHT22;251;48.704;9.210;2022-07-23T16:02:58;28.40;3.70
530;DHT22;251;48.704;9.210;2022-07-23T16:05:25;28.50;3.50
530;DHT22;251;48.704;9.210;2022-07-23T16:07:53;28.50;4.40
530;DHT22;251;48.704;9.210;2022-07-23T16:10:19;28.70;3.20
530;DHT22;251;48.704;9.210;2022-07-23T16:12:46;28.70;1.90
530;DHT22;251;48.704;9.210;2022-07-23T16:15:13;28.70;3.00
530;DHT22;251;48.704;9.210;2022-07-23T16:17:40;28.80;3.30
530;DHT22;251;48.704;9.210;2022-07-23T16:20:08;28.80;1.50
530;DHT22;251;48.704;9.210;2022-07-23T16:22:35;28.80;1.70
530;DHT22;251;48.704;9.210;2022-07-23T16:25:04;28.80;1.20
530;DHT22;251;48.704;9.210;2022-07-23T16:27:31;28.80;1.00
530;DHT22;251;48.704;9.210;2022-07-23T16:29:58;28.80;1.00
530;DHT22;251;48.704;9.210;2022-07-23T16:32:25;28.80;2.80
530;DHT22;251;48.704;9.210;2022-07-23T16:34:52;28.70;1.50
530;DHT22;251;48.704;9.210;2022-07-23T16:37:18;28.60;1.20
530;DHT22;251;48.704;9.210;2022-07-23T16:39:45;28.50;3.80
530;DHT22;251;48.704;9.210;2022-07-23T16:42:13;28.40;1.60
530;DHT22;251;48.704;9.210;2022-07-23T16:44:40;28.40;2.00
530;DHT22;251;48.704;9.210;2022-07-23T16:47:08;28.30;2.20
530;DHT22;251;48.704;9.210;2022-07-23T16:49:34;28.20;2.20
530;DHT22;251;48.704;9.210;2022-07-23T16:52:02;28.20;2.00